createdAt,value
2019-01-25T00:00:11.426Z,31.60
2019-01-25T00:02:40.222Z,29.53
2019-01-25T00:05:08.869Z,27.00
2019-01-25T00:07:37.407Z,30.57
2019-01-25T00:10:08.232Z,32.23
2019-01-25T00:12:36.779Z,30.10
2019-01-25T00:15:08.667Z,28.00
2019-01-25T00:17:37.275Z,32.53
2019-01-25T00:20:13.171Z,30.50
2019-01-25T00:22:41.954Z,30.50
2019-01-25T00:25:10.855Z,33.33
2019-01-25T00:27:39.430Z,30.67
2019-01-25T00:30:13.905Z,30.80
2019-01-25T00:32:42.750Z,30.60
2019-01-25T00:35:11.538Z,32.30
2019-01-25T00:37:40.326Z,31.27
2019-01-25T00:40:12.288Z,31.70
2019-01-25T00:42:41.170Z,29.03
2019-01-25T00:45:11.255Z,29.67
2019-01-25T00:47:39.906Z,30.20
2019-01-25T00:50:14.265Z,28.80
2019-01-25T00:52:42.786Z,28.40
2019-01-25T00:55:11.579Z,27.47
2019-01-25T00:57:40.643Z,30.93
2019-01-25T01:00:12.561Z,29.50
2019-01-25T01:02:41.460Z,26.60
2019-01-25T01:05:10.256Z,30.50
2019-01-25T01:07:38.981Z,30.70
2019-01-25T01:10:14.115Z,29.70
2019-01-25T01:12:40.539Z,28.27
2019-01-25T01:15:12.221Z,30.40
2019-01-25T01:17:40.863Z,29.33
2019-01-25T01:20:12.256Z,28.90
2019-01-25T01:22:40.902Z,27.30
2019-01-25T01:25:10.492Z,29.57
2019-01-25T01:27:39.214Z,30.37
2019-01-25T01:30:17.125Z,29.70
2019-01-25T01:32:46.068Z,31.07
2019-01-25T01:35:15.057Z,26.93
2019-01-25T01:37:43.782Z,30.43
2019-01-25T01:40:22.119Z,28.73
2019-01-25T01:42:48.528Z,27.53
2019-01-25T01:45:17.820Z,29.47
2019-01-25T01:47:46.457Z,31.00
2019-01-25T01:50:17.013Z,30.33
2019-01-25T01:52:46.216Z,29.43
2019-01-25T01:55:14.837Z,27.27
2019-01-25T01:57:43.445Z,29.17
2019-01-25T02:00:15.366Z,28.60
2019-01-25T02:02:43.913Z,29.10
2019-01-25T02:05:12.633Z,26.77
2019-01-25T02:07:41.250Z,29.47
2019-01-25T02:10:29.552Z,27.40
2019-01-25T02:12:55.881Z,28.00
2019-01-25T02:15:24.593Z,28.97
2019-01-25T02:17:53.672Z,28.67
2019-01-25T02:20:25.073Z,28.23
2019-01-25T02:22:53.702Z,26.23
2019-01-25T02:25:22.718Z,29.30
2019-01-25T02:27:51.414Z,31.00
2019-01-25T02:30:22.346Z,31.33
2019-01-25T02:32:51.059Z,28.67
2019-01-25T02:35:19.702Z,28.10
2019-01-25T02:37:48.317Z,30.00
2019-01-25T02:40:19.643Z,27.23
2019-01-25T02:42:48.259Z,29.07
2019-01-25T02:45:17.111Z,27.80
2019-01-25T02:47:46.208Z,28.83
2019-01-25T02:50:17.062Z,28.37
2019-01-25T02:52:45.692Z,29.03
2019-01-25T02:55:15.915Z,30.20
2019-01-25T02:57:44.524Z,25.00
2019-01-25T03:00:24.491Z,29.67
2019-01-25T03:02:53.792Z,30.67
2019-01-25T03:05:23.903Z,28.67
2019-01-25T03:07:52.693Z,26.33
2019-01-25T03:10:28.461Z,29.70
2019-01-25T03:12:53.047Z,28.30
2019-01-25T03:15:23.877Z,26.17
2019-01-25T03:17:52.868Z,24.97
2019-01-25T03:20:21.674Z,26.83
2019-01-25T03:22:50.294Z,25.90
2019-01-25T03:25:21.110Z,26.40
2019-01-25T03:27:49.735Z,25.87
2019-01-25T03:30:25.657Z,27.87
2019-01-25T03:32:54.781Z,29.00
2019-01-25T03:35:25.462Z,29.80
2019-01-25T03:37:54.455Z,28.80
2019-01-25T03:40:25.158Z,25.47
2019-01-25T03:42:54.043Z,26.30
2019-01-25T03:45:23.268Z,24.63
2019-01-25T03:47:52.090Z,24.80
2019-01-25T03:50:26.033Z,24.30
2019-01-25T03:52:54.717Z,24.50
2019-01-25T03:55:24.430Z,28.03
2019-01-25T03:57:53.151Z,26.20
2019-01-25T04:00:26.607Z,25.17
2019-01-25T04:02:55.226Z,25.87
2019-01-25T04:05:23.947Z,25.87
2019-01-25T04:07:52.571Z,22.83
2019-01-25T04:10:23.954Z,24.80
2019-01-25T04:12:52.593Z,24.77
2019-01-25T04:15:23.338Z,24.40
2019-01-25T04:17:51.886Z,22.47
2019-01-25T04:20:22.222Z,23.10
2019-01-25T04:22:50.902Z,24.37
2019-01-25T04:25:21.626Z,25.43
2019-01-25T04:27:50.830Z,27.13
2019-01-25T04:30:24.252Z,24.63
2019-01-25T04:32:52.944Z,25.17
2019-01-25T04:35:21.569Z,27.50
2019-01-25T04:37:50.054Z,23.70
2019-01-25T04:40:19.263Z,25.83
2019-01-25T04:42:48.049Z,26.00
2019-01-25T04:45:18.743Z,26.33
2019-01-25T04:47:47.449Z,25.40
2019-01-25T04:50:21.506Z,29.20
2019-01-25T04:52:50.355Z,24.87
2019-01-25T04:55:21.514Z,26.13
2019-01-25T04:57:50.261Z,25.27
2019-01-25T05:00:21.222Z,25.40
2019-01-25T05:02:58.122Z,24.37
2019-01-25T05:05:27.507Z,25.90
2019-01-25T05:08:05.448Z,23.80
2019-01-25T05:10:34.267Z,24.90
2019-01-25T05:13:02.934Z,24.40
2019-01-25T05:15:31.610Z,23.93
2019-01-25T05:18:00.267Z,26.33
2019-01-25T05:20:29.066Z,26.30
2019-01-25T05:23:00.194Z,22.70
2019-01-25T05:25:29.093Z,25.40
2019-01-25T05:27:59.484Z,25.03
2019-01-25T05:30:28.109Z,24.80
2019-01-25T05:32:56.839Z,25.70
2019-01-25T05:35:26.915Z,23.57
2019-01-25T05:37:55.495Z,24.47
2019-01-25T05:40:26.425Z,23.93
2019-01-25T05:42:54.998Z,24.60
2019-01-25T05:45:23.630Z,25.23
2019-01-25T05:47:52.199Z,23.77
2019-01-25T05:50:20.828Z,23.60
2019-01-25T05:52:49.472Z,23.90
2019-01-25T05:55:20.530Z,23.30
2019-01-25T05:57:49.247Z,25.57
2019-01-25T06:00:19.501Z,24.00
2019-01-25T06:02:48.154Z,25.53
2019-01-25T06:05:17.341Z,24.80
2019-01-25T06:07:45.979Z,26.30
2019-01-25T06:10:14.636Z,25.97
2019-01-25T06:12:43.210Z,22.47
2019-01-25T06:15:13.390Z,23.97
2019-01-25T06:17:41.966Z,26.37
2019-01-25T06:20:12.058Z,24.23
2019-01-25T06:22:41.398Z,24.20
2019-01-25T06:25:09.944Z,24.17
2019-01-25T06:27:40.137Z,24.27
2019-01-25T06:30:13.823Z,24.63
2019-01-25T06:32:42.469Z,24.50
2019-01-25T06:35:12.209Z,23.40
2019-01-25T06:37:40.823Z,24.57
2019-01-25T06:40:14.758Z,23.30
2019-01-25T06:42:43.303Z,23.87
2019-01-25T06:45:12.958Z,23.70
2019-01-25T06:47:41.506Z,22.70
2019-01-25T06:50:12.880Z,25.30
2019-01-25T06:52:41.429Z,25.53
2019-01-25T06:55:10.144Z,22.93
2019-01-25T06:57:46.406Z,23.97
2019-01-25T07:00:18.466Z,23.70
2019-01-25T07:02:47.254Z,23.13
2019-01-25T07:05:15.830Z,24.80
2019-01-25T07:07:45.954Z,23.00
2019-01-25T07:10:17.669Z,21.70
2019-01-25T07:12:46.281Z,21.50
2019-01-25T07:15:16.658Z,22.53
2019-01-25T07:17:46.567Z,23.10
2019-01-25T07:20:16.575Z,22.37
2019-01-25T07:22:45.077Z,22.47
2019-01-25T07:25:15.396Z,22.50
2019-01-25T07:27:43.945Z,23.27
2019-01-25T07:30:16.987Z,23.67
2019-01-25T07:32:45.707Z,22.87
2019-01-25T07:35:14.400Z,23.87
2019-01-25T07:37:43.029Z,22.93
2019-01-25T07:40:12.064Z,22.03
2019-01-25T07:42:40.774Z,22.60
2019-01-25T07:45:12.010Z,22.30
2019-01-25T07:47:40.540Z,22.27
2019-01-25T07:50:12.627Z,22.33
2019-01-25T07:52:41.641Z,22.17
2019-01-25T07:55:13.422Z,24.63
2019-01-25T07:57:41.981Z,23.40
2019-01-25T08:00:13.170Z,22.20
2019-01-25T08:02:41.721Z,23.87
2019-01-25T08:05:11.330Z,20.67
2019-01-25T08:07:39.886Z,22.27
2019-01-25T08:10:14.161Z,22.30
2019-01-25T08:12:42.760Z,21.47
2019-01-25T08:15:14.587Z,21.23
2019-01-25T08:17:43.206Z,22.47
2019-01-25T08:20:13.323Z,22.20
2019-01-25T08:22:42.286Z,22.10
2019-01-25T08:25:11.067Z,23.07
2019-01-25T08:27:39.637Z,22.77
2019-01-25T08:30:16.500Z,21.80
2019-01-25T08:32:45.126Z,22.00
2019-01-25T08:35:15.011Z,23.63
2019-01-25T08:37:43.706Z,23.00
2019-01-25T08:40:16.389Z,22.97
2019-01-25T08:42:45.095Z,21.80
2019-01-25T08:45:18.687Z,22.80
2019-01-25T08:47:47.353Z,22.50
2019-01-25T08:50:21.825Z,23.20
2019-01-25T08:52:50.543Z,22.40
2019-01-25T08:55:21.306Z,21.47
2019-01-25T08:57:49.485Z,23.03
2019-01-25T09:00:20.600Z,23.97
2019-01-25T09:02:49.267Z,26.07
2019-01-25T09:05:18.834Z,22.23
2019-01-25T09:07:47.765Z,24.63
2019-01-25T09:10:18.908Z,25.77
2019-01-25T09:12:47.566Z,24.53
2019-01-25T09:15:19.028Z,28.80
2019-01-25T09:17:47.734Z,28.77
2019-01-25T09:20:21.431Z,34.40
2019-01-25T09:22:50.069Z,28.00
2019-01-25T09:25:18.758Z,29.33
2019-01-25T09:27:47.988Z,24.90
2019-01-25T09:30:22.711Z,27.40
2019-01-25T09:32:51.555Z,26.97
2019-01-25T09:35:20.645Z,24.47
2019-01-25T09:37:50.342Z,26.60
2019-01-25T09:40:22.523Z,27.90
2019-01-25T09:42:51.848Z,33.10
2019-01-25T09:45:21.044Z,26.83
2019-01-25T09:47:49.718Z,26.50
2019-01-25T09:50:20.245Z,25.13
2019-01-25T09:52:49.151Z,27.77
2019-01-25T09:55:25.245Z,28.50
2019-01-25T09:57:56.727Z,26.77
2019-01-25T10:00:33.982Z,26.60
2019-01-25T10:03:02.567Z,32.17
2019-01-25T10:05:31.183Z,29.57
2019-01-25T10:07:59.730Z,27.63
2019-01-25T10:10:28.307Z,34.20
2019-01-25T10:12:56.852Z,24.30
2019-01-25T10:15:27.797Z,26.60
2019-01-25T10:17:56.473Z,27.00
2019-01-25T10:20:25.287Z,25.60
2019-01-25T10:22:53.895Z,25.00
2019-01-25T10:25:22.537Z,23.90
2019-01-25T10:27:51.152Z,28.53
2019-01-25T10:30:22.906Z,26.53
2019-01-25T10:32:51.541Z,25.67
2019-01-25T10:35:20.247Z,24.17
2019-01-25T10:37:49.033Z,27.07
2019-01-25T10:40:20.224Z,25.80
2019-01-25T10:42:53.354Z,25.20
2019-01-25T10:45:30.917Z,27.90
2019-01-25T10:47:59.529Z,29.90
2019-01-25T10:50:28.166Z,31.60
2019-01-25T10:52:56.882Z,30.43
2019-01-25T10:55:25.593Z,25.40
2019-01-25T10:57:54.286Z,29.30
2019-01-25T11:00:23.253Z,28.37
2019-01-25T11:02:58.106Z,27.13
2019-01-25T11:05:27.488Z,32.97
2019-01-25T11:07:56.046Z,30.20
2019-01-25T11:10:24.754Z,31.77
2019-01-25T11:13:00.515Z,29.80
2019-01-25T11:15:25.582Z,33.20
2019-01-25T11:17:54.134Z,27.60
2019-01-25T11:20:24.762Z,30.30
2019-01-25T11:22:53.760Z,28.60
2019-01-25T11:25:31.743Z,29.07
2019-01-25T11:28:00.309Z,28.77
2019-01-25T11:30:29.002Z,26.20
2019-01-25T11:32:57.576Z,29.20
2019-01-25T11:35:26.045Z,27.93
2019-01-25T11:37:54.557Z,32.07
2019-01-25T11:40:35.134Z,29.50
2019-01-25T11:43:08.420Z,29.40
2019-01-25T11:45:33.963Z,27.77
2019-01-25T11:48:02.601Z,29.17
2019-01-25T11:50:31.400Z,29.67
2019-01-25T11:52:59.965Z,28.63
2019-01-25T11:55:28.436Z,31.70
2019-01-25T11:57:57.000Z,33.00
2019-01-25T12:00:28.187Z,29.70
2019-01-25T12:02:56.828Z,29.67
2019-01-25T12:05:25.942Z,31.33
2019-01-25T12:07:55.442Z,28.67
2019-01-25T12:10:31.791Z,30.20
2019-01-25T12:13:00.359Z,30.10
2019-01-25T12:15:28.903Z,28.57
2019-01-25T12:17:57.471Z,27.80
2019-01-25T12:20:28.087Z,28.37
2019-01-25T12:22:56.720Z,33.00
2019-01-25T12:25:25.401Z,29.73
2019-01-25T12:27:54.242Z,30.90
2019-01-25T12:30:39.117Z,28.93
2019-01-25T12:33:08.125Z,29.27
2019-01-25T12:35:38.897Z,29.80
2019-01-25T12:38:07.464Z,26.47
2019-01-25T12:40:36.010Z,31.70
2019-01-25T12:43:05.321Z,27.73
2019-01-25T12:45:34.307Z,34.57
2019-01-25T12:48:02.958Z,29.23
2019-01-25T12:50:37.619Z,27.33
2019-01-25T12:53:08.334Z,28.70
2019-01-25T12:55:36.887Z,30.40
2019-01-25T12:58:06.027Z,29.87
2019-01-25T13:00:34.574Z,27.00
2019-01-25T13:03:03.283Z,28.87
2019-01-25T13:05:31.947Z,28.90
2019-01-25T13:08:00.491Z,29.73
2019-01-25T13:10:29.289Z,29.87
2019-01-25T13:12:58.010Z,26.00
2019-01-25T13:15:26.622Z,26.90
2019-01-25T13:17:55.215Z,27.60
2019-01-25T13:20:28.623Z,27.13
2019-01-25T13:22:57.349Z,31.10
2019-01-25T13:25:25.908Z,29.57
2019-01-25T13:27:54.561Z,32.00
2019-01-25T13:30:26.130Z,30.33
2019-01-25T13:32:54.750Z,31.00
2019-01-25T13:35:23.601Z,28.33
2019-01-25T13:37:52.495Z,33.20
2019-01-25T13:40:28.426Z,35.43
2019-01-25T13:42:57.341Z,32.53
2019-01-25T13:45:25.981Z,32.00
2019-01-25T13:47:54.668Z,33.17
2019-01-25T13:50:28.683Z,31.90
2019-01-25T13:52:57.235Z,37.50
2019-01-25T13:55:26.257Z,38.47
2019-01-25T13:57:54.932Z,30.40
2019-01-25T14:00:34.850Z,31.60
2019-01-25T14:03:03.832Z,32.97
2019-01-25T14:05:32.412Z,32.90
2019-01-25T14:08:00.953Z,33.10
2019-01-25T14:10:32.057Z,33.57
2019-01-25T14:13:00.598Z,32.00
2019-01-25T14:15:29.401Z,30.67
2019-01-25T14:17:57.865Z,34.40
2019-01-25T14:20:29.038Z,31.93
2019-01-25T14:22:57.608Z,29.53
2019-01-25T14:25:26.313Z,35.63
2019-01-25T14:27:54.849Z,37.60
2019-01-25T14:30:34.686Z,30.30
2019-01-25T14:33:03.758Z,31.30
2019-01-25T14:35:32.386Z,31.27
2019-01-25T14:38:01.129Z,30.17
2019-01-25T14:40:29.811Z,32.60
2019-01-25T14:42:58.381Z,31.23
2019-01-25T14:45:27.295Z,33.50
2019-01-25T14:47:56.008Z,33.80
2019-01-25T14:50:27.459Z,29.17
2019-01-25T14:52:56.110Z,29.40
2019-01-25T14:55:24.715Z,29.70
2019-01-25T14:57:53.414Z,28.37
2019-01-25T15:00:22.022Z,28.10
2019-01-25T15:02:50.594Z,29.70
2019-01-25T15:05:20.381Z,28.47
2019-01-25T15:07:49.094Z,26.83
2019-01-25T15:10:22.738Z,27.47
2019-01-25T15:12:52.374Z,28.77
2019-01-25T15:15:20.922Z,29.33
2019-01-25T15:17:49.657Z,28.47
2019-01-25T15:20:23.488Z,27.90
2019-01-25T15:22:52.054Z,27.10
2019-01-25T15:25:20.672Z,26.23
2019-01-25T15:27:49.239Z,27.40
2019-01-25T15:30:20.863Z,30.27
2019-01-25T15:32:49.497Z,28.30
2019-01-25T15:35:19.986Z,27.20
2019-01-25T15:37:48.687Z,26.93
2019-01-25T15:40:19.168Z,27.43
2019-01-25T15:42:47.906Z,25.47
2019-01-25T15:45:18.412Z,26.37
2019-01-25T15:47:46.985Z,24.73
2019-01-25T15:50:18.601Z,28.80
2019-01-25T15:52:47.181Z,26.70
2019-01-25T15:55:16.165Z,26.67
2019-01-25T15:57:44.734Z,25.60
2019-01-25T16:00:15.835Z,27.27
2019-01-25T16:02:44.467Z,26.67
2019-01-25T16:05:16.169Z,29.20
2019-01-25T16:07:44.870Z,27.53
2019-01-25T16:10:15.857Z,28.97
2019-01-25T16:12:44.498Z,25.23
2019-01-25T16:15:18.814Z,27.43
2019-01-25T16:17:47.653Z,27.00
2019-01-25T16:20:19.665Z,26.50
2019-01-25T16:22:49.803Z,28.70
2019-01-25T16:25:24.229Z,24.90
2019-01-25T16:27:52.812Z,24.93
2019-01-25T16:30:24.293Z,24.63
2019-01-25T16:32:52.893Z,25.83
2019-01-25T16:35:21.469Z,24.50
2019-01-25T16:37:50.078Z,25.37
2019-01-25T16:40:21.391Z,26.50
2019-01-25T16:42:49.946Z,24.60
2019-01-25T16:45:27.541Z,23.13
2019-01-25T16:47:56.087Z,23.27
2019-01-25T16:50:24.938Z,23.93
2019-01-25T16:52:53.474Z,23.40
2019-01-25T16:55:22.057Z,23.40
2019-01-25T16:57:50.618Z,21.87
2019-01-25T17:00:34.029Z,22.20
2019-01-25T17:03:02.571Z,22.57
2019-01-25T17:05:31.288Z,20.80
2019-01-25T17:07:59.922Z,22.13
2019-01-25T17:10:28.827Z,22.00
2019-01-25T17:12:57.378Z,22.13
2019-01-25T17:15:26.803Z,19.20
2019-01-25T17:17:55.475Z,17.83
2019-01-25T17:20:28.926Z,17.43
2019-01-25T17:22:57.839Z,15.47
2019-01-25T17:25:26.427Z,15.03
2019-01-25T17:27:55.030Z,15.80
2019-01-25T17:30:28.800Z,14.40
2019-01-25T17:32:59.091Z,15.50
2019-01-25T17:35:27.897Z,14.07
2019-01-25T17:37:56.578Z,15.00
2019-01-25T17:40:33.785Z,14.10
2019-01-25T17:43:02.251Z,14.80
2019-01-25T17:45:30.891Z,15.20
2019-01-25T17:47:59.435Z,14.43
2019-01-25T17:50:28.090Z,13.23
2019-01-25T17:52:56.617Z,13.50
2019-01-25T17:55:25.185Z,14.90
2019-01-25T17:57:53.797Z,13.90
2019-01-25T18:00:32.414Z,12.73
2019-01-25T18:03:01.037Z,13.17
2019-01-25T18:05:29.605Z,14.10
2019-01-25T18:07:58.153Z,14.50
2019-01-25T18:10:26.790Z,14.97
2019-01-25T18:12:55.406Z,13.90
2019-01-25T18:15:24.116Z,14.70
2019-01-25T18:17:52.657Z,13.77
2019-01-25T18:20:23.329Z,14.67
2019-01-25T18:22:52.216Z,15.73
2019-01-25T18:25:38.887Z,14.10
2019-01-25T18:28:10.510Z,13.43
2019-01-25T18:30:51.213Z,12.20
2019-01-25T18:33:19.840Z,13.73
2019-01-25T18:35:48.471Z,13.17
2019-01-25T18:38:17.012Z,14.13
2019-01-25T18:40:45.582Z,14.90
2019-01-25T18:43:14.341Z,14.03
2019-01-25T18:45:42.912Z,14.07
2019-01-25T18:48:11.446Z,14.77
2019-01-25T18:50:39.997Z,12.97
2019-01-25T18:53:08.568Z,11.80
2019-01-25T18:55:37.114Z,14.70
2019-01-25T18:58:05.694Z,14.63
2019-01-25T19:00:34.473Z,16.03
2019-01-25T19:03:02.971Z,13.57
2019-01-25T19:05:31.587Z,16.93
2019-01-25T19:08:00.172Z,15.40
2019-01-25T19:10:29.854Z,15.93
2019-01-25T19:12:58.495Z,17.03
2019-01-25T19:15:33.407Z,16.77
2019-01-25T19:18:02.050Z,15.73
2019-01-25T19:20:30.663Z,15.27
2019-01-25T19:22:59.301Z,18.23
2019-01-25T19:25:27.842Z,16.60
2019-01-25T19:27:56.481Z,14.90
2019-01-25T19:30:36.917Z,17.20
2019-01-25T19:33:06.290Z,20.70
2019-01-25T19:35:35.079Z,16.30
2019-01-25T19:38:03.805Z,18.37
2019-01-25T19:40:36.303Z,16.63
2019-01-25T19:43:06.235Z,16.50
2019-01-25T19:45:34.924Z,18.60
2019-01-25T19:48:03.933Z,19.60
2019-01-25T19:50:34.015Z,17.57
2019-01-25T19:53:02.741Z,18.23
2019-01-25T19:55:32.826Z,19.53
2019-01-25T19:58:04.263Z,17.50
2019-01-25T20:00:41.565Z,16.07
2019-01-25T20:03:10.299Z,17.37
2019-01-25T20:05:38.978Z,17.23
2019-01-25T20:08:07.789Z,17.70
2019-01-25T20:10:36.427Z,18.73
2019-01-25T20:13:05.958Z,16.27
2019-01-25T20:15:34.630Z,18.13
2019-01-25T20:18:03.368Z,17.57
2019-01-25T20:20:34.735Z,16.13
2019-01-25T20:23:03.554Z,16.07
2019-01-25T20:25:32.242Z,16.43
2019-01-25T20:28:00.891Z,16.27
2019-01-25T20:30:31.951Z,16.70
2019-01-25T20:33:01.870Z,16.47
2019-01-25T20:35:41.166Z,16.20
2019-01-25T20:38:09.992Z,17.23
2019-01-25T20:40:38.628Z,16.40
2019-01-25T20:43:07.267Z,15.70
2019-01-25T20:45:37.860Z,17.60
2019-01-25T20:48:06.779Z,17.17
2019-01-25T20:50:36.894Z,17.30
2019-01-25T20:53:07.106Z,17.73
2019-01-25T20:55:35.740Z,18.57
2019-01-25T20:58:04.930Z,17.47
2019-01-25T21:00:35.673Z,17.70
2019-01-25T21:03:05.424Z,17.50
2019-01-25T21:05:34.155Z,19.40
2019-01-25T21:08:02.774Z,19.30
2019-01-25T21:10:31.499Z,17.80
2019-01-25T21:13:00.128Z,18.23
2019-01-25T21:15:35.114Z,18.43
2019-01-25T21:17:59.868Z,16.37
2019-01-25T21:20:31.385Z,17.80
2019-01-25T21:23:00.067Z,17.30
2019-01-25T21:25:28.717Z,16.80
2019-01-25T21:27:57.274Z,16.77
2019-01-25T21:30:28.296Z,18.47
2019-01-25T21:32:56.987Z,19.00
2019-01-25T21:35:25.653Z,18.40
2019-01-25T21:37:54.276Z,18.00
2019-01-25T21:40:25.696Z,18.90
2019-01-25T21:42:54.318Z,18.27
2019-01-25T21:45:25.113Z,18.77
2019-01-25T21:47:54.022Z,17.60
2019-01-25T21:50:27.991Z,18.77
2019-01-25T21:52:56.694Z,26.83
2019-01-25T21:55:25.276Z,19.80
2019-01-25T21:57:53.900Z,22.50
2019-01-25T22:00:28.280Z,24.60
2019-01-25T22:02:56.891Z,21.90
2019-01-25T22:05:25.540Z,26.70
2019-01-25T22:07:54.225Z,19.53
2019-01-25T22:10:25.433Z,23.97
2019-01-25T22:12:54.132Z,22.90
2019-01-25T22:15:22.830Z,22.90
2019-01-25T22:17:51.482Z,20.93
2019-01-25T22:20:25.640Z,18.40
2019-01-25T22:22:54.357Z,17.10
2019-01-25T22:25:23.047Z,17.47
2019-01-25T22:27:52.971Z,19.67
2019-01-25T22:30:24.594Z,17.53
2019-01-25T22:32:53.324Z,19.43
2019-01-25T22:35:22.015Z,18.50
2019-01-25T22:37:50.654Z,17.40
2019-01-25T22:40:22.315Z,18.60
2019-01-25T22:42:50.963Z,16.17
2019-01-25T22:45:21.864Z,19.00
2019-01-25T22:47:50.572Z,17.43
2019-01-25T22:50:26.953Z,19.07
2019-01-25T22:52:55.884Z,16.30
2019-01-25T22:55:25.267Z,18.03
2019-01-25T22:57:53.910Z,17.73
2019-01-25T23:00:50.907Z,19.40
2019-01-25T23:03:28.333Z,17.27
2019-01-25T23:06:05.672Z,16.13
2019-01-25T23:08:34.254Z,17.03
2019-01-25T23:11:02.814Z,13.60
2019-01-25T23:13:31.637Z,18.87
2019-01-25T23:16:06.340Z,14.37
2019-01-25T23:18:30.439Z,16.50
2019-01-25T23:20:59.050Z,18.37
2019-01-25T23:23:27.657Z,17.97
2019-01-25T23:25:56.290Z,18.70
2019-01-25T23:28:24.860Z,19.80
2019-01-25T23:30:53.483Z,18.90
2019-01-25T23:33:22.050Z,16.80
2019-01-25T23:35:50.722Z,18.40
2019-01-25T23:38:19.587Z,17.67
2019-01-25T23:40:48.147Z,16.10
2019-01-25T23:43:16.723Z,17.70
2019-01-25T23:45:45.392Z,16.40
2019-01-25T23:48:13.969Z,18.20
2019-01-25T23:50:42.533Z,15.10
2019-01-25T23:53:11.048Z,14.40
2019-01-25T23:55:39.590Z,16.50
2019-01-25T23:58:08.232Z,16.20
